Accueil
METAR-TAF:

METAR-TAF

Aéroports :

Asheboro Regional Airport

Asheboro, Caroline du Nord, États-Unis

latitude: 35-39-14N, longitude: 079-53-42W, altitude: 205 m

Observation

Le bulletin a été fait il y a 30 minutes, à 15:35 UTC
Vent 6 kt de nord/nord-est
Température 10°C
Humidité 71%
Pression 1028 hPa
Visibilité: 16.1 km
Ciel couvert à une hauteur de 5000 ft

METAR: KHBI 191535Z AUTO 03006KT 10SM OVC050 10/05 A3035 RMK AO2 T00950047

Heure: 11:05 (16:05 UTC)


TAF: absent

Observations et prévisions météorologiques de plus de 4000 aéroports (messages METAR et TAF).

Les stations disponibles sont représentées par des disques jaunes et rouges sur la carte.

Passer la souris dessus pour voir le nom de la station.

Cliquer dessus pour voir les observations et prévisions météorologiques.

Pour changer de carte: cliquez sur les boutons verts avec une croix noire pour zoomer, sur le bouton vert avec un tiret pour effectuer un zoom arrière, ou sur les flèches vertes pour les cartes adjacentes.


METAR-TAF: